sensor_id;sensor_type;location;lat;lon;timestamp;pressure;altitude;pressure_sealevel;temperature;humidity
26087;BME280;13851;43.434;28.338;2023-04-30T00:00:08;99189.03;;;8.18;100.00
26087;BME280;13851;43.434;28.338;2023-04-30T00:02:34;99480.09;;;9.95;100.00
26087;BME280;13851;43.434;28.338;2023-04-30T00:05:00;99143.50;;;8.04;100.00
26087;BME280;13851;43.434;28.338;2023-04-30T00:07:26;99548.69;;;10.08;100.00
26087;BME280;13851;43.434;28.338;2023-04-30T00:09:51;99537.66;;;10.16;100.00
26087;BME280;13851;43.434;28.338;2023-04-30T00:12:17;99443.91;;;9.55;100.00
26087;BME280;13851;43.434;28.338;2023-04-30T00:14:42;99541.44;;;9.77;100.00
26087;BME280;13851;43.434;28.338;2023-04-30T00:17:08;99468.50;;;9.55;100.00
26087;BME280;13851;43.434;28.338;2023-04-30T00:19:33;99180.28;;;7.85;100.00
26087;BME280;13851;43.434;28.338;2023-04-30T00:21:59;99479.28;;;9.71;100.00
26087;BME280;13851;43.434;28.338;2023-04-30T00:24:26;99527.94;;;9.99;100.00
26087;BME280;13851;43.434;28.338;2023-04-30T00:26:52;99520.00;;;9.89;100.00
26087;BME280;13851;43.434;28.338;2023-04-30T00:29:17;99292.38;;;8.44;100.00
26087;BME280;13851;43.434;28.338;2023-04-30T00:31:43;99526.66;;;9.86;100.00
26087;BME280;13851;43.434;28.338;2023-04-30T00:34:08;99549.94;;;9.82;100.00
26087;BME280;13851;43.434;28.338;2023-04-30T00:36:34;99510.34;;;9.78;100.00
26087;BME280;13851;43.434;28.338;2023-04-30T00:39:00;99492.38;;;9.61;100.00
26087;BME280;13851;43.434;28.338;2023-04-30T00:41:26;99509.88;;;9.52;100.00
26087;BME280;13851;43.434;28.338;2023-04-30T00:43:52;99522.31;;;9.92;100.00
26087;BME280;13851;43.434;28.338;2023-04-30T00:46:18;99528.25;;;9.81;100.00
26087;BME280;13851;43.434;28.338;2023-04-30T00:48:43;99486.25;;;9.59;100.00
26087;BME280;13851;43.434;28.338;2023-04-30T00:51:09;99475.13;;;9.60;100.00
26087;BME280;13851;43.434;28.338;2023-04-30T00:53:37;99533.00;;;10.02;100.00
26087;BME280;13851;43.434;28.338;2023-04-30T00:56:04;99486.94;;;9.76;100.00
26087;BME280;13851;43.434;28.338;2023-04-30T00:58:30;99216.88;;;8.14;100.00
26087;BME280;13851;43.434;28.338;2023-04-30T01:00:56;99532.94;;;9.72;100.00
26087;BME280;13851;43.434;28.338;2023-04-30T01:03:22;99524.31;;;9.83;100.00
26087;BME280;13851;43.434;28.338;2023-04-30T01:05:48;99411.06;;;8.79;100.00
26087;BME280;13851;43.434;28.338;2023-04-30T01:08:14;99477.34;;;9.42;100.00
26087;BME280;13851;43.434;28.338;2023-04-30T01:14:27;99515.28;;;9.60;100.00
26087;BME280;13851;43.434;28.338;2023-04-30T01:17:17;99517.53;;;9.56;100.00
26087;BME280;13851;43.434;28.338;2023-04-30T01:19:46;99473.44;;;9.36;100.00
26087;BME280;13851;43.434;28.338;2023-04-30T01:30:29;99450.03;;;9.19;100.00
26087;BME280;13851;43.434;28.338;2023-04-30T01:32:56;99510.06;;;9.50;100.00
26087;BME280;13851;43.434;28.338;2023-04-30T01:41:12;99467.66;;;9.17;100.00
26087;BME280;13851;43.434;28.338;2023-04-30T01:44:03;99500.47;;;9.31;100.00
26087;BME280;13851;43.434;28.338;2023-04-30T01:46:30;99482.94;;;9.26;100.00
26087;BME280;13851;43.434;28.338;2023-04-30T01:51:42;99454.88;;;9.09;100.00
26087;BME280;13851;43.434;28.338;2023-04-30T01:54:26;99240.19;;;7.70;100.00
26087;BME280;13851;43.434;28.338;2023-04-30T01:57:04;99491.31;;;9.24;100.00
26087;BME280;13851;43.434;28.338;2023-04-30T01:59:35;99535.78;;;9.18;100.00
26087;BME280;13851;43.434;28.338;2023-04-30T02:02:02;99166.09;;;7.36;100.00
26087;BME280;13851;43.434;28.338;2023-04-30T02:04:28;99503.28;;;9.23;100.00
26087;BME280;13851;43.434;28.338;2023-04-30T02:06:53;99494.19;;;9.08;100.00
26087;BME280;13851;43.434;28.338;2023-04-30T02:09:19;99457.41;;;8.96;100.00
26087;BME280;13851;43.434;28.338;2023-04-30T02:11:48;99527.88;;;9.23;100.00
26087;BME280;13851;43.434;28.338;2023-04-30T02:14:13;99468.00;;;9.14;100.00
26087;BME280;13851;43.434;28.338;2023-04-30T02:16:39;99477.00;;;9.22;100.00
26087;BME280;13851;43.434;28.338;2023-04-30T02:19:06;99432.81;;;8.96;100.00
26087;BME280;13851;43.434;28.338;2023-04-30T02:21:31;99512.06;;;9.10;100.00
26087;BME280;13851;43.434;28.338;2023-04-30T02:23:57;99377.53;;;8.71;100.00
26087;BME280;13851;43.434;28.338;2023-04-30T02:26:22;99488.44;;;9.41;100.00
26087;BME280;13851;43.434;28.338;2023-04-30T02:28:48;99420.66;;;8.98;100.00
26087;BME280;13851;43.434;28.338;2023-04-30T02:31:13;99459.75;;;9.22;100.00
26087;BME280;13851;43.434;28.338;2023-04-30T02:33:39;99154.34;;;7.35;100.00
26087;BME280;13851;43.434;28.338;2023-04-30T02:36:05;99491.50;;;9.23;100.00
26087;BME280;13851;43.434;28.338;2023-04-30T02:38:30;99154.13;;;7.14;100.00
26087;BME280;13851;43.434;28.338;2023-04-30T02:40:56;99412.81;;;8.72;100.00
26087;BME280;13851;43.434;28.338;2023-04-30T02:43:21;99462.94;;;8.79;100.00
26087;BME280;13851;43.434;28.338;2023-04-30T02:45:47;99484.47;;;9.28;100.00
26087;BME280;13851;43.434;28.338;2023-04-30T02:48:12;99461.97;;;8.95;100.00
26087;BME280;13851;43.434;28.338;2023-04-30T02:50:38;99473.47;;;8.91;100.00
26087;BME280;13851;43.434;28.338;2023-04-30T02:53:03;99503.22;;;9.08;100.00
26087;BME280;13851;43.434;28.338;2023-04-30T02:55:29;99506.50;;;9.04;100.00
26087;BME280;13851;43.434;28.338;2023-04-30T02:57:55;99160.84;;;6.95;100.00
26087;BME280;13851;43.434;28.338;2023-04-30T03:00:20;99412.66;;;8.43;100.00
26087;BME280;13851;43.434;28.338;2023-04-30T03:02:46;99504.91;;;9.09;100.00
26087;BME280;13851;43.434;28.338;2023-04-30T03:05:12;99153.38;;;6.89;100.00
26087;BME280;13851;43.434;28.338;2023-04-30T03:07:37;99441.91;;;8.65;100.00
26087;BME280;13851;43.434;28.338;2023-04-30T03:10:03;99353.50;;;8.04;100.00
26087;BME280;13851;43.434;28.338;2023-04-30T03:12:29;99520.47;;;8.86;100.00
26087;BME280;13851;43.434;28.338;2023-04-30T03:14:54;99450.63;;;8.61;100.00
26087;BME280;13851;43.434;28.338;2023-04-30T03:17:20;99148.28;;;6.86;100.00
26087;BME280;13851;43.434;28.338;2023-04-30T03:19:45;99510.69;;;8.92;100.00
26087;BME280;13851;43.434;28.338;2023-04-30T03:22:11;99510.50;;;8.93;100.00
26087;BME280;13851;43.434;28.338;2023-04-30T03:24:36;99513.94;;;8.87;100.00
26087;BME280;13851;43.434;28.338;2023-04-30T03:27:02;99523.22;;;8.78;100.00
26087;BME280;13851;43.434;28.338;2023-04-30T03:29:27;99460.41;;;8.47;100.00
26087;BME280;13851;43.434;28.338;2023-04-30T03:31:53;99454.06;;;8.15;100.00
26087;BME280;13851;43.434;28.338;2023-04-30T03:34:18;99524.19;;;8.85;100.00
26087;BME280;13851;43.434;28.338;2023-04-30T03:36:44;99442.34;;;8.46;100.00
26087;BME280;13851;43.434;28.338;2023-04-30T03:39:10;99469.97;;;8.43;100.00
26087;BME280;13851;43.434;28.338;2023-04-30T03:41:35;99514.50;;;9.05;100.00
26087;BME280;13851;43.434;28.338;2023-04-30T03:44:01;99484.00;;;8.71;100.00
26087;BME280;13851;43.434;28.338;2023-04-30T03:46:26;99588.56;;;8.88;100.00
26087;BME280;13851;43.434;28.338;2023-04-30T03:48:52;99524.81;;;8.95;100.00
26087;BME280;13851;43.434;28.338;2023-04-30T03:51:19;99525.94;;;9.09;100.00
26087;BME280;13851;43.434;28.338;2023-04-30T03:53:45;99523.81;;;9.19;100.00
26087;BME280;13851;43.434;28.338;2023-04-30T03:56:11;99530.19;;;9.34;100.00
26087;BME280;13851;43.434;28.338;2023-04-30T03:58:36;99141.34;;;7.22;100.00
26087;BME280;13851;43.434;28.338;2023-04-30T04:01:02;99488.44;;;9.41;100.00
26087;BME280;13851;43.434;28.338;2023-04-30T04:03:28;99538.41;;;9.72;100.00
26087;BME280;13851;43.434;28.338;2023-04-30T04:05:54;99511.44;;;9.69;100.00
26087;BME280;13851;43.434;28.338;2023-04-30T04:08:19;99535.91;;;9.85;100.00
26087;BME280;13851;43.434;28.338;2023-04-30T04:10:45;99533.00;;;10.02;100.00
26087;BME280;13851;43.434;28.338;2023-04-30T04:13:10;99526.69;;;10.01;100.00
26087;BME280;13851;43.434;28.338;2023-04-30T04:15:36;99524.94;;;10.08;100.00
26087;BME280;13851;43.434;28.338;2023-04-30T04:18:02;99445.03;;;9.60;100.00
26087;BME280;13851;43.434;28.338;2023-04-30T04:20:27;99153.84;;;7.86;100.00
26087;BME280;13851;43.434;28.338;2023-04-30T04:22:55;99379.63;;;9.21;100.00
26087;BME280;13851;43.434;28.338;2023-04-30T04:25:21;99428.75;;;9.29;100.00
26087;BME280;13851;43.434;28.338;2023-04-30T04:27:49;99480.53;;;9.83;100.00
26087;BME280;13851;43.434;28.338;2023-04-30T04:30:16;99527.34;;;10.18;100.00
26087;BME280;13851;43.434;28.338;2023-04-30T04:32:41;99538.06;;;10.28;100.00
26087;BME280;13851;43.434;28.338;2023-04-30T04:35:12;99545.56;;;10.34;100.00
26087;BME280;13851;43.434;28.338;2023-04-30T04:37:38;99497.94;;;10.20;100.00
26087;BME280;13851;43.434;28.338;2023-04-30T04:40:04;99227.38;;;8.85;100.00
26087;BME280;13851;43.434;28.338;2023-04-30T04:42:30;99533.03;;;10.90;100.00
26087;BME280;13851;43.434;28.338;2023-04-30T04:44:56;99194.19;;;9.03;100.00
26087;BME280;13851;43.434;28.338;2023-04-30T04:47:22;98989.44;;;8.29;100.00
26087;BME280;13851;43.434;28.338;2023-04-30T04:49:47;99552.25;;;11.97;100.00
26087;BME280;13851;43.434;28.338;2023-04-30T04:52:13;99575.81;;;12.41;100.00
26087;BME280;13851;43.434;28.338;2023-04-30T04:54:38;99592.91;;;12.65;100.00
26087;BME280;13851;43.434;28.338;2023-04-30T04:57:04;99504.88;;;12.52;100.00
26087;BME280;13851;43.434;28.338;2023-04-30T04:59:29;99559.38;;;12.89;100.00
26087;BME280;13851;43.434;28.338;2023-04-30T05:01:55;99312.81;;;11.26;100.00
26087;BME280;13851;43.434;28.338;2023-04-30T05:04:21;99514.88;;;12.25;100.00
26087;BME280;13851;43.434;28.338;2023-04-30T05:06:46;99267.22;;;10.69;100.00
26087;BME280;13851;43.434;28.338;2023-04-30T05:09:12;99579.72;;;12.26;100.00
26087;BME280;13851;43.434;28.338;2023-04-30T05:11:38;99516.22;;;12.35;100.00
26087;BME280;13851;43.434;28.338;2023-04-30T05:14:05;99039.25;;;9.55;100.00
26087;BME280;13851;43.434;28.338;2023-04-30T05:16:31;99537.84;;;12.52;100.00
26087;BME280;13851;43.434;28.338;2023-04-30T05:18:57;99522.31;;;12.72;100.00
26087;BME280;13851;43.434;28.338;2023-04-30T05:21:23;99440.25;;;12.14;100.00
26087;BME280;13851;43.434;28.338;2023-04-30T05:23:50;99545.38;;;13.25;100.00
26087;BME280;13851;43.434;28.338;2023-04-30T05:26:16;99553.72;;;13.52;100.00
26087;BME280;13851;43.434;28.338;2023-04-30T05:28:41;99573.47;;;13.82;100.00
26087;BME280;13851;43.434;28.338;2023-04-30T05:31:07;99586.13;;;13.70;100.00
26087;BME280;13851;43.434;28.338;2023-04-30T05:33:33;99558.81;;;13.82;100.00
26087;BME280;13851;43.434;28.338;2023-04-30T05:35:58;99558.41;;;13.78;100.00
26087;BME280;13851;43.434;28.338;2023-04-30T05:38:24;99526.59;;;13.56;100.00
26087;BME280;13851;43.434;28.338;2023-04-30T05:40:49;99615.81;;;13.94;100.00
26087;BME280;13851;43.434;28.338;2023-04-30T05:43:17;99222.56;;;11.79;100.00
26087;BME280;13851;43.434;28.338;2023-04-30T05:45:43;99523.25;;;13.80;100.00
26087;BME280;13851;43.434;28.338;2023-04-30T05:48:08;99282.97;;;12.40;100.00
26087;BME280;13851;43.434;28.338;2023-04-30T05:50:34;99551.44;;;14.09;100.00
26087;BME280;13851;43.434;28.338;2023-04-30T05:53:00;99517.97;;;13.98;100.00
26087;BME280;13851;43.434;28.338;2023-04-30T05:55:25;99490.19;;;14.07;100.00
26087;BME280;13851;43.434;28.338;2023-04-30T05:57:51;99602.63;;;14.89;100.00
26087;BME280;13851;43.434;28.338;2023-04-30T06:00:17;99571.81;;;15.05;100.00
26087;BME280;13851;43.434;28.338;2023-04-30T06:02:43;99529.63;;;14.92;100.00
26087;BME280;13851;43.434;28.338;2023-04-30T06:05:08;99598.91;;;15.22;100.00
26087;BME280;13851;43.434;28.338;2023-04-30T06:07:34;99577.94;;;15.52;100.00
26087;BME280;13851;43.434;28.338;2023-04-30T06:10:00;99503.66;;;15.13;100.00
26087;BME280;13851;43.434;28.338;2023-04-30T06:12:25;99536.19;;;15.42;100.00
26087;BME280;13851;43.434;28.338;2023-04-30T06:14:51;99368.22;;;14.51;100.00
26087;BME280;13851;43.434;28.338;2023-04-30T06:17:17;99578.13;;;15.64;100.00
26087;BME280;13851;43.434;28.338;2023-04-30T06:19:45;99526.94;;;15.62;100.00
26087;BME280;13851;43.434;28.338;2023-04-30T06:22:11;99559.09;;;15.81;100.00
26087;BME280;13851;43.434;28.338;2023-04-30T06:24:37;99578.59;;;16.18;100.00
26087;BME280;13851;43.434;28.338;2023-04-30T06:27:03;99584.94;;;16.43;100.00
26087;BME280;13851;43.434;28.338;2023-04-30T06:29:29;99576.38;;;16.70;100.00
26087;BME280;13851;43.434;28.338;2023-04-30T06:31:54;99598.91;;;16.73;97.59
26087;BME280;13851;43.434;28.338;2023-04-30T06:34:20;99599.34;;;16.95;98.52
26087;BME280;13851;43.434;28.338;2023-04-30T06:36:46;99553.66;;;16.86;93.33
26087;BME280;13851;43.434;28.338;2023-04-30T06:39:15;99605.31;;;16.92;91.69
26087;BME280;13851;43.434;28.338;2023-04-30T06:41:41;99593.78;;;16.77;90.22
26087;BME280;13851;43.434;28.338;2023-04-30T06:44:07;99586.72;;;16.81;90.37
26087;BME280;13851;43.434;28.338;2023-04-30T06:46:33;99593.25;;;16.86;90.45
26087;BME280;13851;43.434;28.338;2023-04-30T06:48:59;99220.31;;;14.70;84.83
26087;BME280;13851;43.434;28.338;2023-04-30T06:51:24;99534.84;;;16.33;80.55
26087;BME280;13851;43.434;28.338;2023-04-30T06:53:51;99632.81;;;16.87;77.66
26087;BME280;13851;43.434;28.338;2023-04-30T06:56:17;99316.28;;;15.36;73.94
26087;BME280;13851;43.434;28.338;2023-04-30T06:58:42;99582.69;;;17.13;76.38
26087;BME280;13851;43.434;28.338;2023-04-30T07:01:08;99593.06;;;17.36;77.57
26087;BME280;13851;43.434;28.338;2023-04-30T07:03:34;99472.69;;;16.79;69.33
26087;BME280;13851;43.434;28.338;2023-04-30T07:05:59;99346.81;;;16.21;64.60
26087;BME280;13851;43.434;28.338;2023-04-30T07:08:25;99495.63;;;17.28;63.36
26087;BME280;13851;43.434;28.338;2023-04-30T07:10:50;99594.84;;;17.79;61.54
26087;BME280;13851;43.434;28.338;2023-04-30T07:13:16;99602.00;;;17.87;63.44
26087;BME280;13851;43.434;28.338;2023-04-30T07:15:42;99546.28;;;17.47;64.47
26087;BME280;13851;43.434;28.338;2023-04-30T07:18:08;99591.25;;;17.90;65.64
26087;BME280;13851;43.434;28.338;2023-04-30T07:20:34;99534.28;;;17.64;56.98
26087;BME280;13851;43.434;28.338;2023-04-30T07:22:59;99599.94;;;17.94;57.20
26087;BME280;13851;43.434;28.338;2023-04-30T07:25:25;99603.03;;;17.86;56.36
26087;BME280;13851;43.434;28.338;2023-04-30T07:27:51;99212.72;;;15.52;55.99
26087;BME280;13851;43.434;28.338;2023-04-30T07:30:17;99628.50;;;17.95;51.56
26087;BME280;13851;43.434;28.338;2023-04-30T07:32:43;99590.69;;;18.00;52.55
26087;BME280;13851;43.434;28.338;2023-04-30T07:35:09;99606.22;;;18.43;51.24
26087;BME280;13851;43.434;28.338;2023-04-30T07:37:35;99519.84;;;18.04;49.87
26087;BME280;13851;43.434;28.338;2023-04-30T07:40:00;99607.09;;;18.79;50.25
26087;BME280;13851;43.434;28.338;2023-04-30T07:42:25;99270.41;;;16.99;47.55
26087;BME280;13851;43.434;28.338;2023-04-30T07:44:51;99588.50;;;18.79;46.40
26087;BME280;13851;43.434;28.338;2023-04-30T07:47:17;99609.19;;;19.35;46.79
26087;BME280;13851;43.434;28.338;2023-04-30T07:49:45;99598.00;;;19.47;45.30
26087;BME280;13851;43.434;28.338;2023-04-30T07:52:11;99492.66;;;19.00;44.80
26087;BME280;13851;43.434;28.338;2023-04-30T07:54:37;99573.91;;;19.76;45.24
26087;BME280;13851;43.434;28.338;2023-04-30T07:57:04;99635.56;;;19.90;44.16
26087;BME280;13851;43.434;28.338;2023-04-30T07:59:31;99605.78;;;20.02;43.97
26087;BME280;13851;43.434;28.338;2023-04-30T08:01:56;99569.38;;;19.87;41.17
26087;BME280;13851;43.434;28.338;2023-04-30T08:04:22;99626.50;;;20.11;42.21
26087;BME280;13851;43.434;28.338;2023-04-30T08:06:48;99539.38;;;19.89;42.00
26087;BME280;13851;43.434;28.338;2023-04-30T08:09:13;99255.66;;;18.44;40.95
26087;BME280;13851;43.434;28.338;2023-04-30T08:11:40;99338.00;;;18.84;40.46
26087;BME280;13851;43.434;28.338;2023-04-30T08:14:05;99598.50;;;20.01;40.16
26087;BME280;13851;43.434;28.338;2023-04-30T08:16:31;99596.34;;;20.03;40.84
26087;BME280;13851;43.434;28.338;2023-04-30T08:18:57;99307.88;;;18.07;39.97
26087;BME280;13851;43.434;28.338;2023-04-30T08:21:23;99588.53;;;19.71;41.81
26087;BME280;13851;43.434;28.338;2023-04-30T08:23:51;99594.41;;;20.04;42.30
26087;BME280;13851;43.434;28.338;2023-04-30T08:26:17;99595.88;;;20.23;41.76
26087;BME280;13851;43.434;28.338;2023-04-30T08:28:42;99281.84;;;18.65;41.27
26087;BME280;13851;43.434;28.338;2023-04-30T08:31:08;99564.22;;;20.46;39.81
26087;BME280;13851;43.434;28.338;2023-04-30T08:33:34;99588.75;;;20.83;38.93
26087;BME280;13851;43.434;28.338;2023-04-30T08:36:00;99414.84;;;19.57;39.81
26087;BME280;13851;43.434;28.338;2023-04-30T08:38:27;99592.94;;;20.63;39.96
26087;BME280;13851;43.434;28.338;2023-04-30T08:40:58;99595.63;;;20.58;40.57
26087;BME280;13851;43.434;28.338;2023-04-30T08:43:33;99516.31;;;20.22;40.93
26087;BME280;13851;43.434;28.338;2023-04-30T08:45:59;99283.75;;;18.93;40.14
26087;BME280;13851;43.434;28.338;2023-04-30T08:48:27;99331.72;;;19.39;39.36
26087;BME280;13851;43.434;28.338;2023-04-30T08:50:52;99565.63;;;20.99;38.28
26087;BME280;13851;43.434;28.338;2023-04-30T08:53:18;99543.19;;;20.50;39.47
26087;BME280;13851;43.434;28.338;2023-04-30T08:55:46;99592.94;;;21.02;40.21
26087;BME280;13851;43.434;28.338;2023-04-30T08:58:11;99582.66;;;21.24;39.41
26087;BME280;13851;43.434;28.338;2023-04-30T09:00:38;99592.16;;;21.45;38.29
26087;BME280;13851;43.434;28.338;2023-04-30T09:03:05;99576.38;;;21.56;37.83
26087;BME280;13851;43.434;28.338;2023-04-30T09:05:30;99584.72;;;21.78;37.28
26087;BME280;13851;43.434;28.338;2023-04-30T09:07:56;99561.47;;;21.23;37.66
26087;BME280;13851;43.434;28.338;2023-04-30T09:10:22;99576.00;;;20.87;38.13
26087;BME280;13851;43.434;28.338;2023-04-30T09:13:02;99290.81;;;18.55;38.99
26087;BME280;13851;43.434;28.338;2023-04-30T09:15:28;99264.09;;;18.37;38.98
26087;BME280;13851;43.434;28.338;2023-04-30T09:18:15;99567.13;;;20.34;40.34
26087;BME280;13851;43.434;28.338;2023-04-30T09:20:59;99557.72;;;19.90;39.26
26087;BME280;13851;43.434;28.338;2023-04-30T09:23:28;99543.66;;;19.51;41.32
26087;BME280;13851;43.434;28.338;2023-04-30T09:25:54;99562.16;;;19.45;42.04
26087;BME280;13851;43.434;28.338;2023-04-30T09:28:21;99537.78;;;19.36;43.47
26087;BME280;13851;43.434;28.338;2023-04-30T09:30:52;99573.72;;;19.83;42.45
26087;BME280;13851;43.434;28.338;2023-04-30T09:33:17;99560.19;;;20.03;40.51
26087;BME280;13851;43.434;28.338;2023-04-30T09:35:43;99548.81;;;20.21;40.54
26087;BME280;13851;43.434;28.338;2023-04-30T09:38:29;99565.19;;;20.68;40.60
26087;BME280;13851;43.434;28.338;2023-04-30T09:40:58;99504.03;;;20.40;40.84
26087;BME280;13851;43.434;28.338;2023-04-30T09:43:24;99350.00;;;19.18;40.60
26087;BME280;13851;43.434;28.338;2023-04-30T09:45:51;99257.41;;;18.33;41.74
26087;BME280;13851;43.434;28.338;2023-04-30T09:48:24;99521.44;;;20.13;42.20
26087;BME280;13851;43.434;28.338;2023-04-30T09:50:52;99250.88;;;18.85;42.10
26087;BME280;13851;43.434;28.338;2023-04-30T09:53:18;99255.41;;;18.91;42.87
26087;BME280;13851;43.434;28.338;2023-04-30T09:55:46;99479.03;;;19.89;42.18
26087;BME280;13851;43.434;28.338;2023-04-30T09:58:13;99418.81;;;19.16;42.78
26087;BME280;13851;43.434;28.338;2023-04-30T10:00:41;99494.72;;;19.79;44.38
26087;BME280;13851;43.434;28.338;2023-04-30T10:03:08;99544.28;;;20.49;42.29
26087;BME280;13851;43.434;28.338;2023-04-30T10:05:40;99578.16;;;20.46;42.54
26087;BME280;13851;43.434;28.338;2023-04-30T10:08:10;99522.69;;;20.56;41.72
26087;BME280;13851;43.434;28.338;2023-04-30T10:10:37;99550.19;;;21.13;42.35
26087;BME280;13851;43.434;28.338;2023-04-30T10:13:09;99538.28;;;20.96;41.23
26087;BME280;13851;43.434;28.338;2023-04-30T10:15:39;99551.53;;;21.54;41.59
26087;BME280;13851;43.434;28.338;2023-04-30T10:18:20;99562.41;;;21.78;41.38
26087;BME280;13851;43.434;28.338;2023-04-30T10:20:47;99284.66;;;19.83;41.26
26087;BME280;13851;43.434;28.338;2023-04-30T10:23:15;99564.34;;;21.50;41.14
26087;BME280;13851;43.434;28.338;2023-04-30T10:25:41;99548.78;;;21.33;41.21
26087;BME280;13851;43.434;28.338;2023-04-30T10:28:09;99513.91;;;21.08;41.82
26087;BME280;13851;43.434;28.338;2023-04-30T10:30:35;99468.84;;;20.67;40.76
26087;BME280;13851;43.434;28.338;2023-04-30T10:36:11;99562.41;;;20.68;42.91
26087;BME280;13851;43.434;28.338;2023-04-30T10:38:38;99554.22;;;20.45;42.85
26087;BME280;13851;43.434;28.338;2023-04-30T10:41:05;99528.28;;;20.22;42.51
26087;BME280;13851;43.434;28.338;2023-04-30T10:43:32;99534.66;;;20.40;43.52
26087;BME280;13851;43.434;28.338;2023-04-30T10:46:00;99484.56;;;20.40;43.00
26087;BME280;13851;43.434;28.338;2023-04-30T10:48:27;99561.03;;;21.32;42.39
26087;BME280;13851;43.434;28.338;2023-04-30T10:50:56;99440.19;;;20.89;40.74
26087;BME280;13851;43.434;28.338;2023-04-30T10:53:22;99508.34;;;21.52;41.46
26087;BME280;13851;43.434;28.338;2023-04-30T10:56:02;99569.47;;;21.86;40.30
26087;BME280;13851;43.434;28.338;2023-04-30T10:58:37;99565.63;;;21.92;41.44
26087;BME280;13851;43.434;28.338;2023-04-30T11:01:13;99573.97;;;22.19;39.65
26087;BME280;13851;43.434;28.338;2023-04-30T11:03:41;99271.97;;;20.58;39.85
26087;BME280;13851;43.434;28.338;2023-04-30T11:06:14;99513.59;;;22.40;39.43
26087;BME280;13851;43.434;28.338;2023-04-30T11:08:44;99563.69;;;22.94;38.33
26087;BME280;13851;43.434;28.338;2023-04-30T11:11:19;99559.31;;;23.18;37.64
26087;BME280;13851;43.434;28.338;2023-04-30T11:13:58;99496.91;;;22.97;38.06
26087;BME280;13851;43.434;28.338;2023-04-30T11:16:34;99566.81;;;23.70;36.56
26087;BME280;13851;43.434;28.338;2023-04-30T11:19:09;99568.56;;;24.07;35.76
26087;BME280;13851;43.434;28.338;2023-04-30T11:22:27;99562.69;;;24.24;36.07
26087;BME280;13851;43.434;28.338;2023-04-30T11:27:22;99578.69;;;24.59;35.88
26087;BME280;13851;43.434;28.338;2023-04-30T11:29:48;99265.84;;;22.82;34.03
26087;BME280;13851;43.434;28.338;2023-04-30T11:32:16;99531.63;;;24.15;33.32
26087;BME280;13851;43.434;28.338;2023-04-30T11:34:42;99522.38;;;24.15;33.79
26087;BME280;13851;43.434;28.338;2023-04-30T11:37:11;99528.56;;;24.22;34.59
26087;BME280;13851;43.434;28.338;2023-04-30T11:39:38;99247.13;;;22.57;35.00
26087;BME280;13851;43.434;28.338;2023-04-30T11:42:06;99343.06;;;23.19;34.53
26087;BME280;13851;43.434;28.338;2023-04-30T11:44:32;99562.16;;;24.73;34.49
26087;BME280;13851;43.434;28.338;2023-04-30T11:46:58;99335.78;;;23.49;33.79
26087;BME280;13851;43.434;28.338;2023-04-30T11:49:23;99538.28;;;24.90;34.26
26087;BME280;13851;43.434;28.338;2023-04-30T11:51:49;99513.06;;;24.90;33.60
26087;BME280;13851;43.434;28.338;2023-04-30T11:54:16;99510.50;;;25.09;33.38
26087;BME280;13851;43.434;28.338;2023-04-30T11:56:46;99556.06;;;25.40;33.20
26087;BME280;13851;43.434;28.338;2023-04-30T11:59:18;99551.88;;;25.33;33.82
26087;BME280;13851;43.434;28.338;2023-04-30T12:01:44;99553.25;;;25.46;33.63
26087;BME280;13851;43.434;28.338;2023-04-30T12:04:09;99561.66;;;25.46;33.14
26087;BME280;13851;43.434;28.338;2023-04-30T12:06:35;99546.22;;;25.43;32.44
26087;BME280;13851;43.434;28.338;2023-04-30T12:09:02;99331.19;;;24.29;33.21
26087;BME280;13851;43.434;28.338;2023-04-30T12:11:32;99543.81;;;25.81;32.50
26087;BME280;13851;43.434;28.338;2023-04-30T12:14:08;99560.19;;;26.08;32.63
26087;BME280;13851;43.434;28.338;2023-04-30T12:16:40;99461.63;;;25.31;32.08
26087;BME280;13851;43.434;28.338;2023-04-30T12:19:06;99524.22;;;25.01;31.98
26087;BME280;13851;43.434;28.338;2023-04-30T12:21:32;99562.72;;;24.39;33.27
26087;BME280;13851;43.434;28.338;2023-04-30T12:23:58;99275.28;;;22.51;34.59
26087;BME280;13851;43.434;28.338;2023-04-30T12:26:33;99535.53;;;24.34;35.62
26087;BME280;13851;43.434;28.338;2023-04-30T12:29:02;99598.00;;;24.60;35.29
26087;BME280;13851;43.434;28.338;2023-04-30T12:31:30;99552.91;;;24.67;34.81
26087;BME280;13851;43.434;28.338;2023-04-30T12:33:56;99483.47;;;24.23;34.16
26087;BME280;13851;43.434;28.338;2023-04-30T12:36:28;99559.38;;;24.37;34.32
26087;BME280;13851;43.434;28.338;2023-04-30T12:39:21;99540.84;;;24.56;33.73
26087;BME280;13851;43.434;28.338;2023-04-30T12:41:47;99541.94;;;24.76;33.36
26087;BME280;13851;43.434;28.338;2023-04-30T12:46:49;99555.91;;;25.76;32.11
26087;BME280;13851;43.434;28.338;2023-04-30T12:49:32;99578.84;;;26.28;31.59
26087;BME280;13851;43.434;28.338;2023-04-30T12:52:08;99548.06;;;26.52;30.65
26087;BME280;13851;43.434;28.338;2023-04-30T12:54:35;99550.13;;;26.36;30.94
26087;BME280;13851;43.434;28.338;2023-04-30T12:57:11;99548.63;;;26.14;31.02
26087;BME280;13851;43.434;28.338;2023-04-30T13:02:15;99217.31;;;23.19;32.44
26087;BME280;13851;43.434;28.338;2023-04-30T13:04:42;99286.56;;;23.73;31.78
26087;BME280;13851;43.434;28.338;2023-04-30T13:07:08;99538.34;;;25.50;31.17
26087;BME280;13851;43.434;28.338;2023-04-30T13:09:35;99483.31;;;25.10;30.72
26087;BME280;13851;43.434;28.338;2023-04-30T13:12:01;99356.53;;;24.69;30.47
26087;BME280;13851;43.434;28.338;2023-04-30T13:14:27;99586.63;;;25.42;38.76
26087;BME280;13851;43.434;28.338;2023-04-30T13:16:53;99531.63;;;24.20;39.39
26087;BME280;13851;43.434;28.338;2023-04-30T13:19:19;99556.00;;;23.26;42.15